sensor_id;sensor_type;location;lat;lon;timestamp;P1;durP1;ratioP1;P2;durP2;ratioP2
8466;SDS011;4270;48.148;11.648;2023-05-19T00:01:56;8.67;;;5.00;;
8466;SDS011;4270;48.148;11.648;2023-05-19T00:04:21;8.43;;;4.60;;
8466;SDS011;4270;48.148;11.648;2023-05-19T00:06:48;7.50;;;4.57;;
8466;SDS011;4270;48.148;11.648;2023-05-19T00:09:14;10.77;;;4.50;;
8466;SDS011;4270;48.148;11.648;2023-05-19T00:11:40;8.67;;;4.50;;
8466;SDS011;4270;48.148;11.648;2023-05-19T00:14:06;11.57;;;4.20;;
8466;SDS011;4270;48.148;11.648;2023-05-19T00:16:31;7.70;;;4.50;;
8466;SDS011;4270;48.148;11.648;2023-05-19T00:18:57;7.93;;;3.90;;
8466;SDS011;4270;48.148;11.648;2023-05-19T00:21:26;11.73;;;4.23;;
8466;SDS011;4270;48.148;11.648;2023-05-19T00:23:53;8.67;;;5.90;;
8466;SDS011;4270;48.148;11.648;2023-05-19T00:26:18;8.63;;;4.67;;
8466;SDS011;4270;48.148;11.648;2023-05-19T00:28:43;8.90;;;4.37;;
8466;SDS011;4270;48.148;11.648;2023-05-19T00:31:09;11.70;;;5.17;;
8466;SDS011;4270;48.148;11.648;2023-05-19T00:33:34;9.30;;;5.40;;
8466;SDS011;4270;48.148;11.648;2023-05-19T00:36:02;10.23;;;5.07;;
8466;SDS011;4270;48.148;11.648;2023-05-19T00:38:29;10.87;;;4.43;;
8466;SDS011;4270;48.148;11.648;2023-05-19T00:40:54;9.90;;;4.90;;
8466;SDS011;4270;48.148;11.648;2023-05-19T00:43:19;9.17;;;4.47;;
8466;SDS011;4270;48.148;11.648;2023-05-19T00:45:45;6.73;;;4.20;;
8466;SDS011;4270;48.148;11.648;2023-05-19T00:48:10;14.43;;;4.90;;
8466;SDS011;4270;48.148;11.648;2023-05-19T00:50:36;9.23;;;5.03;;
8466;SDS011;4270;48.148;11.648;2023-05-19T00:53:01;7.60;;;4.30;;
8466;SDS011;4270;48.148;11.648;2023-05-19T00:55:27;5.40;;;4.60;;
8466;SDS011;4270;48.148;11.648;2023-05-19T00:57:53;12.07;;;5.20;;
8466;SDS011;4270;48.148;11.648;2023-05-19T01:00:19;6.90;;;4.50;;
8466;SDS011;4270;48.148;11.648;2023-05-19T01:02:45;8.07;;;4.50;;
8466;SDS011;4270;48.148;11.648;2023-05-19T01:05:10;10.50;;;4.70;;
8466;SDS011;4270;48.148;11.648;2023-05-19T01:07:36;9.20;;;4.03;;
8466;SDS011;4270;48.148;11.648;2023-05-19T01:10:02;8.73;;;4.80;;
8466;SDS011;4270;48.148;11.648;2023-05-19T01:12:27;9.83;;;5.57;;
8466;SDS011;4270;48.148;11.648;2023-05-19T01:14:53;10.13;;;4.60;;
8466;SDS011;4270;48.148;11.648;2023-05-19T01:17:20;9.33;;;4.83;;
8466;SDS011;4270;48.148;11.648;2023-05-19T01:32:18;10.40;;;4.80;;
8466;SDS011;4270;48.148;11.648;2023-05-19T01:34:44;12.70;;;5.67;;
8466;SDS011;4270;48.148;11.648;2023-05-19T01:37:10;12.70;;;4.60;;
8466;SDS011;4270;48.148;11.648;2023-05-19T01:39:37;9.87;;;5.00;;
8466;SDS011;4270;48.148;11.648;2023-05-19T01:42:02;7.37;;;4.60;;
8466;SDS011;4270;48.148;11.648;2023-05-19T01:44:28;12.80;;;5.40;;
8466;SDS011;4270;48.148;11.648;2023-05-19T01:46:53;9.83;;;4.53;;
8466;SDS011;4270;48.148;11.648;2023-05-19T01:49:18;9.87;;;5.23;;
8466;SDS011;4270;48.148;11.648;2023-05-19T01:51:44;9.90;;;5.57;;
8466;SDS011;4270;48.148;11.648;2023-05-19T01:54:09;9.93;;;4.93;;
8466;SDS011;4270;48.148;11.648;2023-05-19T01:56:45;8.57;;;5.20;;
8466;SDS011;4270;48.148;11.648;2023-05-19T01:59:28;10.63;;;5.40;;
8466;SDS011;4270;48.148;11.648;2023-05-19T02:01:56;9.73;;;4.87;;
8466;SDS011;4270;48.148;11.648;2023-05-19T02:04:34;9.00;;;5.90;;
8466;SDS011;4270;48.148;11.648;2023-05-19T02:07:14;7.83;;;5.50;;
8466;SDS011;4270;48.148;11.648;2023-05-19T02:10:00;14.93;;;5.80;;
8466;SDS011;4270;48.148;11.648;2023-05-19T02:12:31;8.70;;;5.50;;
8466;SDS011;4270;48.148;11.648;2023-05-19T02:15:04;8.90;;;4.57;;
8466;SDS011;4270;48.148;11.648;2023-05-19T02:17:31;11.07;;;5.43;;
8466;SDS011;4270;48.148;11.648;2023-05-19T02:19:57;10.50;;;5.37;;
8466;SDS011;4270;48.148;11.648;2023-05-19T02:22:22;10.97;;;5.43;;
8466;SDS011;4270;48.148;11.648;2023-05-19T02:24:47;8.17;;;5.40;;
8466;SDS011;4270;48.148;11.648;2023-05-19T02:27:15;10.60;;;5.37;;
8466;SDS011;4270;48.148;11.648;2023-05-19T02:29:40;11.83;;;5.97;;
8466;SDS011;4270;48.148;11.648;2023-05-19T02:32:06;9.20;;;5.53;;
8466;SDS011;4270;48.148;11.648;2023-05-19T02:34:31;8.93;;;6.43;;
8466;SDS011;4270;48.148;11.648;2023-05-19T02:36:56;8.23;;;4.80;;
8466;SDS011;4270;48.148;11.648;2023-05-19T02:39:21;12.40;;;5.70;;
8466;SDS011;4270;48.148;11.648;2023-05-19T02:41:46;11.30;;;5.90;;
8466;SDS011;4270;48.148;11.648;2023-05-19T02:44:12;9.40;;;4.97;;
8466;SDS011;4270;48.148;11.648;2023-05-19T02:46:37;11.13;;;5.67;;
8466;SDS011;4270;48.148;11.648;2023-05-19T02:49:02;14.33;;;6.87;;
8466;SDS011;4270;48.148;11.648;2023-05-19T02:51:27;9.13;;;5.50;;
8466;SDS011;4270;48.148;11.648;2023-05-19T02:53:52;9.73;;;6.17;;
8466;SDS011;4270;48.148;11.648;2023-05-19T02:56:17;10.40;;;5.63;;
8466;SDS011;4270;48.148;11.648;2023-05-19T02:58:43;10.23;;;5.60;;
8466;SDS011;4270;48.148;11.648;2023-05-19T03:01:08;10.63;;;5.60;;
8466;SDS011;4270;48.148;11.648;2023-05-19T03:03:34;7.17;;;5.60;;
8466;SDS011;4270;48.148;11.648;2023-05-19T03:05:59;8.70;;;5.13;;
8466;SDS011;4270;48.148;11.648;2023-05-19T03:08:25;6.67;;;5.20;;
8466;SDS011;4270;48.148;11.648;2023-05-19T03:10:51;10.13;;;5.97;;
8466;SDS011;4270;48.148;11.648;2023-05-19T03:13:16;14.07;;;6.07;;
8466;SDS011;4270;48.148;11.648;2023-05-19T03:15:41;13.03;;;6.80;;
8466;SDS011;4270;48.148;11.648;2023-05-19T03:18:06;11.47;;;6.50;;
8466;SDS011;4270;48.148;11.648;2023-05-19T03:20:37;10.33;;;5.97;;
8466;SDS011;4270;48.148;11.648;2023-05-19T03:23:03;11.07;;;5.40;;
8466;SDS011;4270;48.148;11.648;2023-05-19T03:25:28;7.53;;;5.70;;
8466;SDS011;4270;48.148;11.648;2023-05-19T03:27:53;6.73;;;5.67;;
8466;SDS011;4270;48.148;11.648;2023-05-19T03:30:19;10.30;;;5.67;;
8466;SDS011;4270;48.148;11.648;2023-05-19T03:32:44;9.67;;;5.73;;
8466;SDS011;4270;48.148;11.648;2023-05-19T03:35:09;11.83;;;5.03;;
8466;SDS011;4270;48.148;11.648;2023-05-19T03:37:34;11.43;;;5.57;;
8466;SDS011;4270;48.148;11.648;2023-05-19T03:40:00;10.27;;;6.50;;
8466;SDS011;4270;48.148;11.648;2023-05-19T03:42:25;7.80;;;5.47;;
8466;SDS011;4270;48.148;11.648;2023-05-19T03:44:50;10.60;;;5.97;;
8466;SDS011;4270;48.148;11.648;2023-05-19T03:47:15;17.67;;;7.30;;
8466;SDS011;4270;48.148;11.648;2023-05-19T03:49:41;12.17;;;5.17;;
8466;SDS011;4270;48.148;11.648;2023-05-19T03:52:06;7.87;;;5.43;;
8466;SDS011;4270;48.148;11.648;2023-05-19T03:54:31;10.83;;;6.00;;
8466;SDS011;4270;48.148;11.648;2023-05-19T03:56:56;9.93;;;6.00;;
8466;SDS011;4270;48.148;11.648;2023-05-19T03:59:21;10.70;;;5.53;;
8466;SDS011;4270;48.148;11.648;2023-05-19T04:01:47;11.60;;;6.13;;
8466;SDS011;4270;48.148;11.648;2023-05-19T04:04:12;10.63;;;5.90;;
8466;SDS011;4270;48.148;11.648;2023-05-19T04:06:38;8.33;;;5.40;;
8466;SDS011;4270;48.148;11.648;2023-05-19T04:09:09;13.27;;;5.00;;
8466;SDS011;4270;48.148;11.648;2023-05-19T04:11:34;8.47;;;5.50;;
8466;SDS011;4270;48.148;11.648;2023-05-19T04:14:01;13.93;;;5.70;;
8466;SDS011;4270;48.148;11.648;2023-05-19T04:16:26;9.63;;;5.23;;
8466;SDS011;4270;48.148;11.648;2023-05-19T04:18:51;11.20;;;6.00;;
8466;SDS011;4270;48.148;11.648;2023-05-19T04:21:16;11.47;;;5.90;;
8466;SDS011;4270;48.148;11.648;2023-05-19T04:23:41;7.00;;;5.50;;
8466;SDS011;4270;48.148;11.648;2023-05-19T04:26:07;8.23;;;5.50;;
8466;SDS011;4270;48.148;11.648;2023-05-19T04:28:32;8.83;;;5.50;;
8466;SDS011;4270;48.148;11.648;2023-05-19T04:31:00;11.77;;;5.93;;
8466;SDS011;4270;48.148;11.648;2023-05-19T04:33:25;9.80;;;5.30;;
8466;SDS011;4270;48.148;11.648;2023-05-19T04:35:53;9.23;;;4.67;;
8466;SDS011;4270;48.148;11.648;2023-05-19T04:38:18;11.67;;;6.10;;
8466;SDS011;4270;48.148;11.648;2023-05-19T04:40:44;8.73;;;5.47;;
8466;SDS011;4270;48.148;11.648;2023-05-19T04:43:09;9.57;;;5.37;;
8466;SDS011;4270;48.148;11.648;2023-05-19T04:45:35;5.70;;;5.10;;
8466;SDS011;4270;48.148;11.648;2023-05-19T04:48:01;6.93;;;5.10;;
8466;SDS011;4270;48.148;11.648;2023-05-19T04:50:26;10.27;;;5.13;;
8466;SDS011;4270;48.148;11.648;2023-05-19T04:52:53;6.50;;;5.20;;
8466;SDS011;4270;48.148;11.648;2023-05-19T04:55:18;10.53;;;5.30;;
8466;SDS011;4270;48.148;11.648;2023-05-19T04:57:44;6.83;;;4.77;;
8466;SDS011;4270;48.148;11.648;2023-05-19T05:00:09;11.20;;;5.30;;
8466;SDS011;4270;48.148;11.648;2023-05-19T05:02:37;9.40;;;4.93;;
8466;SDS011;4270;48.148;11.648;2023-05-19T05:05:03;7.70;;;5.23;;
8466;SDS011;4270;48.148;11.648;2023-05-19T05:07:28;12.30;;;5.70;;
8466;SDS011;4270;48.148;11.648;2023-05-19T05:09:53;9.27;;;5.40;;
8466;SDS011;4270;48.148;11.648;2023-05-19T05:12:20;7.50;;;4.90;;
8466;SDS011;4270;48.148;11.648;2023-05-19T05:14:45;12.03;;;5.73;;
8466;SDS011;4270;48.148;11.648;2023-05-19T05:17:11;11.17;;;5.57;;
8466;SDS011;4270;48.148;11.648;2023-05-19T05:19:36;7.90;;;5.67;;
8466;SDS011;4270;48.148;11.648;2023-05-19T05:22:02;10.70;;;5.83;;
8466;SDS011;4270;48.148;11.648;2023-05-19T05:24:28;11.70;;;6.37;;
8466;SDS011;4270;48.148;11.648;2023-05-19T05:26:53;12.47;;;5.43;;
8466;SDS011;4270;48.148;11.648;2023-05-19T05:29:18;8.20;;;4.87;;
8466;SDS011;4270;48.148;11.648;2023-05-19T05:31:44;8.93;;;5.10;;
8466;SDS011;4270;48.148;11.648;2023-05-19T05:34:09;13.00;;;5.37;;
8466;SDS011;4270;48.148;11.648;2023-05-19T05:36:35;10.60;;;6.17;;
8466;SDS011;4270;48.148;11.648;2023-05-19T05:39:00;8.67;;;5.03;;
8466;SDS011;4270;48.148;11.648;2023-05-19T05:41:26;10.03;;;5.70;;
8466;SDS011;4270;48.148;11.648;2023-05-19T05:43:53;10.97;;;5.40;;
8466;SDS011;4270;48.148;11.648;2023-05-19T05:46:18;10.00;;;5.83;;
8466;SDS011;4270;48.148;11.648;2023-05-19T05:48:43;9.33;;;5.33;;
8466;SDS011;4270;48.148;11.648;2023-05-19T05:51:09;8.30;;;5.80;;
8466;SDS011;4270;48.148;11.648;2023-05-19T05:53:36;12.27;;;5.27;;
8466;SDS011;4270;48.148;11.648;2023-05-19T05:56:03;10.00;;;5.93;;
8466;SDS011;4270;48.148;11.648;2023-05-19T05:58:28;6.80;;;5.30;;
8466;SDS011;4270;48.148;11.648;2023-05-19T06:00:56;10.37;;;5.87;;
8466;SDS011;4270;48.148;11.648;2023-05-19T06:03:21;11.23;;;5.57;;
8466;SDS011;4270;48.148;11.648;2023-05-19T06:05:48;11.73;;;5.17;;
8466;SDS011;4270;48.148;11.648;2023-05-19T06:08:13;7.90;;;5.50;;
8466;SDS011;4270;48.148;11.648;2023-05-19T06:10:38;6.80;;;5.20;;
8466;SDS011;4270;48.148;11.648;2023-05-19T06:13:05;11.03;;;5.43;;
8466;SDS011;4270;48.148;11.648;2023-05-19T06:15:30;10.07;;;5.00;;
8466;SDS011;4270;48.148;11.648;2023-05-19T06:17:55;7.93;;;5.17;;
8466;SDS011;4270;48.148;11.648;2023-05-19T06:20:21;8.67;;;4.57;;
8466;SDS011;4270;48.148;11.648;2023-05-19T06:22:46;9.87;;;5.20;;
8466;SDS011;4270;48.148;11.648;2023-05-19T06:25:11;7.13;;;5.00;;
8466;SDS011;4270;48.148;11.648;2023-05-19T06:27:37;16.40;;;5.30;;
8466;SDS011;4270;48.148;11.648;2023-05-19T06:30:03;9.03;;;5.10;;
8466;SDS011;4270;48.148;11.648;2023-05-19T06:32:28;10.50;;;5.07;;
8466;SDS011;4270;48.148;11.648;2023-05-19T06:34:53;9.70;;;4.63;;
8466;SDS011;4270;48.148;11.648;2023-05-19T06:37:19;5.40;;;4.23;;
8466;SDS011;4270;48.148;11.648;2023-05-19T06:39:45;7.10;;;4.70;;
8466;SDS011;4270;48.148;11.648;2023-05-19T06:42:10;8.40;;;5.23;;
8466;SDS011;4270;48.148;11.648;2023-05-19T06:44:36;8.27;;;4.30;;
8466;SDS011;4270;48.148;11.648;2023-05-19T06:47:01;9.17;;;4.30;;
8466;SDS011;4270;48.148;11.648;2023-05-19T06:49:26;5.10;;;4.17;;
8466;SDS011;4270;48.148;11.648;2023-05-19T06:51:53;9.07;;;4.60;;
8466;SDS011;4270;48.148;11.648;2023-05-19T06:54:18;6.77;;;4.17;;
8466;SDS011;4270;48.148;11.648;2023-05-19T06:56:43;4.57;;;3.93;;
8466;SDS011;4270;48.148;11.648;2023-05-19T06:59:09;7.27;;;4.40;;
8466;SDS011;4270;48.148;11.648;2023-05-19T07:01:34;8.17;;;4.20;;
8466;SDS011;4270;48.148;11.648;2023-05-19T07:03:59;7.10;;;3.70;;
8466;SDS011;4270;48.148;11.648;2023-05-19T07:06:24;6.47;;;4.53;;
8466;SDS011;4270;48.148;11.648;2023-05-19T07:08:50;5.60;;;4.33;;
8466;SDS011;4270;48.148;11.648;2023-05-19T07:11:15;5.93;;;4.40;;
8466;SDS011;4270;48.148;11.648;2023-05-19T07:13:40;6.20;;;4.37;;
8466;SDS011;4270;48.148;11.648;2023-05-19T07:16:05;5.20;;;3.97;;
8466;SDS011;4270;48.148;11.648;2023-05-19T07:18:31;5.30;;;4.30;;
8466;SDS011;4270;48.148;11.648;2023-05-19T07:20:56;7.33;;;3.80;;
8466;SDS011;4270;48.148;11.648;2023-05-19T07:23:22;5.53;;;4.20;;
8466;SDS011;4270;48.148;11.648;2023-05-19T07:25:47;5.73;;;4.20;;
8466;SDS011;4270;48.148;11.648;2023-05-19T07:28:12;7.33;;;4.13;;
8466;SDS011;4270;48.148;11.648;2023-05-19T07:30:37;6.70;;;4.93;;
8466;SDS011;4270;48.148;11.648;2023-05-19T07:33:03;8.27;;;4.83;;
8466;SDS011;4270;48.148;11.648;2023-05-19T07:35:28;5.90;;;4.07;;
8466;SDS011;4270;48.148;11.648;2023-05-19T07:37:53;7.73;;;4.93;;
8466;SDS011;4270;48.148;11.648;2023-05-19T07:40:18;7.90;;;4.83;;
8466;SDS011;4270;48.148;11.648;2023-05-19T07:42:43;9.50;;;5.10;;
8466;SDS011;4270;48.148;11.648;2023-05-19T07:45:09;10.27;;;4.37;;
8466;SDS011;4270;48.148;11.648;2023-05-19T07:47:34;9.73;;;4.07;;
8466;SDS011;4270;48.148;11.648;2023-05-19T07:49:59;6.50;;;4.70;;
8466;SDS011;4270;48.148;11.648;2023-05-19T07:52:24;9.70;;;4.70;;
8466;SDS011;4270;48.148;11.648;2023-05-19T07:54:50;9.00;;;4.80;;
8466;SDS011;4270;48.148;11.648;2023-05-19T07:57:15;7.80;;;4.50;;
8466;SDS011;4270;48.148;11.648;2023-05-19T07:59:40;5.30;;;4.80;;
8466;SDS011;4270;48.148;11.648;2023-05-19T08:02:06;6.00;;;4.60;;
8466;SDS011;4270;48.148;11.648;2023-05-19T08:04:31;12.00;;;4.67;;
8466;SDS011;4270;48.148;11.648;2023-05-19T08:06:56;8.87;;;5.50;;
8466;SDS011;4270;48.148;11.648;2023-05-19T08:09:22;6.33;;;4.67;;
8466;SDS011;4270;48.148;11.648;2023-05-19T08:11:47;10.03;;;4.57;;
8466;SDS011;4270;48.148;11.648;2023-05-19T08:14:13;12.97;;;5.20;;
8466;SDS011;4270;48.148;11.648;2023-05-19T08:16:38;6.77;;;4.73;;
8466;SDS011;4270;48.148;11.648;2023-05-19T08:19:05;6.60;;;4.63;;
8466;SDS011;4270;48.148;11.648;2023-05-19T08:21:31;9.70;;;4.30;;
8466;SDS011;4270;48.148;11.648;2023-05-19T08:23:59;6.53;;;5.27;;
8466;SDS011;4270;48.148;11.648;2023-05-19T08:26:25;9.10;;;5.30;;
8466;SDS011;4270;48.148;11.648;2023-05-19T08:28:50;6.57;;;4.80;;
8466;SDS011;4270;48.148;11.648;2023-05-19T08:31:16;6.47;;;5.73;;
8466;SDS011;4270;48.148;11.648;2023-05-19T08:33:42;5.97;;;5.00;;
8466;SDS011;4270;48.148;11.648;2023-05-19T08:36:07;9.53;;;5.40;;
8466;SDS011;4270;48.148;11.648;2023-05-19T08:38:32;7.60;;;4.70;;
8466;SDS011;4270;48.148;11.648;2023-05-19T08:40:57;7.33;;;6.00;;
8466;SDS011;4270;48.148;11.648;2023-05-19T08:43:23;7.80;;;4.53;;
8466;SDS011;4270;48.148;11.648;2023-05-19T08:45:48;7.30;;;5.10;;
8466;SDS011;4270;48.148;11.648;2023-05-19T08:48:15;6.07;;;4.80;;
8466;SDS011;4270;48.148;11.648;2023-05-19T08:50:40;5.33;;;4.73;;
8466;SDS011;4270;48.148;11.648;2023-05-19T08:53:11;8.43;;;4.43;;
8466;SDS011;4270;48.148;11.648;2023-05-19T08:58:22;7.23;;;4.40;;
8466;SDS011;4270;48.148;11.648;2023-05-19T09:00:48;5.57;;;4.57;;
8466;SDS011;4270;48.148;11.648;2023-05-19T09:03:14;6.40;;;4.60;;
8466;SDS011;4270;48.148;11.648;2023-05-19T09:05:40;14.27;;;5.60;;
8466;SDS011;4270;48.148;11.648;2023-05-19T09:08:05;5.97;;;5.30;;
8466;SDS011;4270;48.148;11.648;2023-05-19T09:10:30;6.40;;;5.53;;
8466;SDS011;4270;48.148;11.648;2023-05-19T09:12:55;7.00;;;5.73;;
8466;SDS011;4270;48.148;11.648;2023-05-19T09:15:21;9.83;;;5.20;;
8466;SDS011;4270;48.148;11.648;2023-05-19T09:17:49;8.07;;;5.53;;
8466;SDS011;4270;48.148;11.648;2023-05-19T09:20:15;7.23;;;5.60;;
8466;SDS011;4270;48.148;11.648;2023-05-19T09:22:44;10.80;;;6.30;;
8466;SDS011;4270;48.148;11.648;2023-05-19T09:25:44;9.33;;;5.47;;
8466;SDS011;4270;48.148;11.648;2023-05-19T09:28:02;7.60;;;5.20;;
8466;SDS011;4270;48.148;11.648;2023-05-19T09:30:27;8.13;;;5.40;;
8466;SDS011;4270;48.148;11.648;2023-05-19T09:32:52;11.70;;;6.03;;
8466;SDS011;4270;48.148;11.648;2023-05-19T09:35:19;8.60;;;6.20;;
8466;SDS011;4270;48.148;11.648;2023-05-19T09:37:45;7.73;;;6.10;;
8466;SDS011;4270;48.148;11.648;2023-05-19T09:40:12;9.33;;;6.20;;
8466;SDS011;4270;48.148;11.648;2023-05-19T09:42:38;9.07;;;5.87;;
8466;SDS011;4270;48.148;11.648;2023-05-19T09:45:03;7.27;;;5.87;;
8466;SDS011;4270;48.148;11.648;2023-05-19T09:47:35;7.57;;;5.97;;
8466;SDS011;4270;48.148;11.648;2023-05-19T09:50:03;6.87;;;6.17;;
8466;SDS011;4270;48.148;11.648;2023-05-19T09:52:28;7.43;;;6.30;;
8466;SDS011;4270;48.148;11.648;2023-05-19T09:54:53;8.67;;;6.17;;
8466;SDS011;4270;48.148;11.648;2023-05-19T09:57:23;7.83;;;7.07;;
8466;SDS011;4270;48.148;11.648;2023-05-19T09:59:49;7.03;;;6.33;;
8466;SDS011;4270;48.148;11.648;2023-05-19T10:02:15;8.20;;;7.00;;
8466;SDS011;4270;48.148;11.648;2023-05-19T10:04:41;8.40;;;6.67;;
8466;SDS011;4270;48.148;11.648;2023-05-19T10:07:07;10.93;;;7.20;;
8466;SDS011;4270;48.148;11.648;2023-05-19T10:09:33;8.40;;;6.30;;
8466;SDS011;4270;48.148;11.648;2023-05-19T10:12:00;8.33;;;6.37;;
8466;SDS011;4270;48.148;11.648;2023-05-19T10:14:27;7.00;;;6.20;;
8466;SDS011;4270;48.148;11.648;2023-05-19T10:16:53;6.63;;;5.93;;
8466;SDS011;4270;48.148;11.648;2023-05-19T10:19:19;9.73;;;7.67;;
8466;SDS011;4270;48.148;11.648;2023-05-19T10:21:44;8.97;;;6.97;;
8466;SDS011;4270;48.148;11.648;2023-05-19T10:24:10;8.37;;;7.23;;
8466;SDS011;4270;48.148;11.648;2023-05-19T10:26:35;9.40;;;7.50;;
8466;SDS011;4270;48.148;11.648;2023-05-19T10:29:01;11.50;;;7.57;;
8466;SDS011;4270;48.148;11.648;2023-05-19T10:31:27;8.80;;;7.20;;
8466;SDS011;4270;48.148;11.648;2023-05-19T10:34:04;8.27;;;7.40;;
8466;SDS011;4270;48.148;11.648;2023-05-19T10:36:43;8.00;;;6.77;;
8466;SDS011;4270;48.148;11.648;2023-05-19T10:39:10;10.50;;;8.17;;
8466;SDS011;4270;48.148;11.648;2023-05-19T10:42:14;8.20;;;6.27;;
8466;SDS011;4270;48.148;11.648;2023-05-19T10:44:35;8.17;;;7.33;;
8466;SDS011;4270;48.148;11.648;2023-05-19T10:47:05;8.70;;;7.80;;
8466;SDS011;4270;48.148;11.648;2023-05-19T10:49:33;8.50;;;7.17;;
8466;SDS011;4270;48.148;11.648;2023-05-19T10:51:58;8.17;;;6.70;;
8466;SDS011;4270;48.148;11.648;2023-05-19T10:54:39;11.10;;;7.00;;
8466;SDS011;4270;48.148;11.648;2023-05-19T10:57:14;8.83;;;7.40;;
8466;SDS011;4270;48.148;11.648;2023-05-19T10:59:40;9.07;;;7.17;;
8466;SDS011;4270;48.148;11.648;2023-05-19T11:02:06;9.40;;;7.47;;
8466;SDS011;4270;48.148;11.648;2023-05-19T11:04:38;7.90;;;7.10;;
8466;SDS011;4270;48.148;11.648;2023-05-19T11:07:04;12.43;;;8.87;;
8466;SDS011;4270;48.148;11.648;2023-05-19T11:09:29;7.37;;;6.67;;
8466;SDS011;4270;48.148;11.648;2023-05-19T11:12:00;10.97;;;8.40;;
8466;SDS011;4270;48.148;11.648;2023-05-19T11:14:27;10.53;;;7.80;;
8466;SDS011;4270;48.148;11.648;2023-05-19T11:16:55;11.57;;;8.57;;
8466;SDS011;4270;48.148;11.648;2023-05-19T11:19:27;9.27;;;8.20;;
8466;SDS011;4270;48.148;11.648;2023-05-19T11:21:53;9.40;;;7.30;;
8466;SDS011;4270;48.148;11.648;2023-05-19T11:27:15;11.93;;;8.80;;
8466;SDS011;4270;48.148;11.648;2023-05-19T11:29:41;8.20;;;7.40;;
8466;SDS011;4270;48.148;11.648;2023-05-19T11:32:06;8.80;;;7.90;;
8466;SDS011;4270;48.148;11.648;2023-05-19T11:34:31;12.30;;;9.60;;
8466;SDS011;4270;48.148;11.648;2023-05-19T11:36:57;8.90;;;8.00;;
8466;SDS011;4270;48.148;11.648;2023-05-19T11:39:23;9.43;;;7.67;;
8466;SDS011;4270;48.148;11.648;2023-05-19T11:41:50;9.97;;;8.93;;
8466;SDS011;4270;48.148;11.648;2023-05-19T11:44:15;14.13;;;7.93;;
8466;SDS011;4270;48.148;11.648;2023-05-19T11:46:40;9.47;;;7.97;;
8466;SDS011;4270;48.148;11.648;2023-05-19T11:49:05;11.73;;;9.00;;
8466;SDS011;4270;48.148;11.648;2023-05-19T11:51:30;9.57;;;8.50;;
8466;SDS011;4270;48.148;11.648;2023-05-19T11:53:57;9.80;;;8.30;;
8466;SDS011;4270;48.148;11.648;2023-05-19T11:56:22;9.50;;;8.53;;
8466;SDS011;4270;48.148;11.648;2023-05-19T11:58:47;11.43;;;8.37;;
8466;SDS011;4270;48.148;11.648;2023-05-19T12:01:13;9.40;;;8.30;;
8466;SDS011;4270;48.148;11.648;2023-05-19T12:03:38;9.03;;;8.17;;
8466;SDS011;4270;48.148;11.648;2023-05-19T12:06:03;10.53;;;8.47;;
8466;SDS011;4270;48.148;11.648;2023-05-19T12:08:30;11.37;;;8.97;;
8466;SDS011;4270;48.148;11.648;2023-05-19T12:10:55;11.30;;;8.40;;
8466;SDS011;4270;48.148;11.648;2023-05-19T12:13:20;12.43;;;9.07;;
8466;SDS011;4270;48.148;11.648;2023-05-19T12:15:46;10.80;;;8.93;;
8466;SDS011;4270;48.148;11.648;2023-05-19T12:18:11;15.03;;;9.40;;
8466;SDS011;4270;48.148;11.648;2023-05-19T12:20:36;10.93;;;9.07;;
8466;SDS011;4270;48.148;11.648;2023-05-19T12:23:02;10.47;;;8.60;;
8466;SDS011;4270;48.148;11.648;2023-05-19T12:25:28;8.97;;;8.13;;
8466;SDS011;4270;48.148;11.648;2023-05-19T12:27:57;10.70;;;8.80;;
8466;SDS011;4270;48.148;11.648;2023-05-19T12:30:26;10.90;;;9.43;;
8466;SDS011;4270;48.148;11.648;2023-05-19T12:32:52;13.33;;;8.93;;
8466;SDS011;4270;48.148;11.648;2023-05-19T12:35:18;9.40;;;8.40;;
8466;SDS011;4270;48.148;11.648;2023-05-19T12:37:44;13.90;;;10.10;;
8466;SDS011;4270;48.148;11.648;2023-05-19T12:40:13;10.40;;;8.97;;
8466;SDS011;4270;48.148;11.648;2023-05-19T12:42:42;43.37;;;17.17;;
8466;SDS011;4270;48.148;11.648;2023-05-19T12:45:08;21.50;;;11.17;;
8466;SDS011;4270;48.148;11.648;2023-05-19T12:47:33;17.87;;;10.20;;
8466;SDS011;4270;48.148;11.648;2023-05-19T12:52:24;21.23;;;12.15;;
8466;SDS011;4270;48.148;11.648;2023-05-19T12:55:23;10.67;;;8.37;;
8466;SDS011;4270;48.148;11.648;2023-05-19T12:57:43;12.40;;;8.17;;
8466;SDS011;4270;48.148;11.648;2023-05-19T13:00:14;9.57;;;8.63;;
8466;SDS011;4270;48.148;11.648;2023-05-19T13:03:19;11.03;;;8.67;;
8466;SDS011;4270;48.148;11.648;2023-05-19T13:05:39;11.20;;;8.93;;
8466;SDS011;4270;48.148;11.648;2023-05-19T13:08:07;10.40;;;8.47;;
8466;SDS011;4270;48.148;11.648;2023-05-19T13:10:33;11.87;;;9.03;;
8466;SDS011;4270;48.148;11.648;2023-05-19T13:12:59;10.50;;;8.43;;
8466;SDS011;4270;48.148;11.648;2023-05-19T13:15:25;10.83;;;7.70;;
8466;SDS011;4270;48.148;11.648;2023-05-19T13:17:50;11.67;;;8.23;;
8466;SDS011;4270;48.148;11.648;2023-05-19T13:20:16;9.80;;;8.80;;
8466;SDS011;4270;48.148;11.648;2023-05-19T13:22:41;9.07;;;7.83;;
8466;SDS011;4270;48.148;11.648;2023-05-19T13:25:07;10.77;;;8.73;;
8466;SDS011;4270;48.148;11.648;2023-05-19T13:27:32;9.13;;;7.70;;
8466;SDS011;4270;48.148;11.648;2023-05-19T13:29:57;11.07;;;8.90;;
8466;SDS011;4270;48.148;11.648;2023-05-19T13:32:22;9.93;;;7.90;;
8466;SDS011;4270;48.148;11.648;2023-05-19T13:34:48;8.53;;;7.63;;
8466;SDS011;4270;48.148;11.648;2023-05-19T13:37:13;9.20;;;7.60;;
8466;SDS011;4270;48.148;11.648;2023-05-19T13:39:38;10.30;;;8.30;;
8466;SDS011;4270;48.148;11.648;2023-05-19T13:42:04;11.07;;;8.00;;
8466;SDS011;4270;48.148;11.648;2023-05-19T13:44:31;9.43;;;8.17;;
8466;SDS011;4270;48.148;11.648;2023-05-19T13:46:56;8.80;;;7.90;;
8466;SDS011;4270;48.148;11.648;2023-05-19T13:49:21;12.23;;;8.50;;
8466;SDS011;4270;48.148;11.648;2023-05-19T13:51:46;8.23;;;7.43;;
8466;SDS011;4270;48.148;11.648;2023-05-19T13:54:11;10.40;;;8.13;;
8466;SDS011;4270;48.148;11.648;2023-05-19T13:56:37;10.67;;;7.87;;
8466;SDS011;4270;48.148;11.648;2023-05-19T13:59:02;10.50;;;8.63;;
8466;SDS011;4270;48.148;11.648;2023-05-19T14:01:28;10.27;;;7.60;;
8466;SDS011;4270;48.148;11.648;2023-05-19T14:03:53;9.23;;;8.33;;
8466;SDS011;4270;48.148;11.648;2023-05-19T14:06:18;10.93;;;8.30;;
8466;SDS011;4270;48.148;11.648;2023-05-19T14:08:44;11.47;;;9.57;;
8466;SDS011;4270;48.148;11.648;2023-05-19T14:11:09;10.20;;;8.00;;
8466;SDS011;4270;48.148;11.648;2023-05-19T14:13:34;11.57;;;8.10;;
8466;SDS011;4270;48.148;11.648;2023-05-19T14:15:59;9.87;;;7.90;;
8466;SDS011;4270;48.148;11.648;2023-05-19T14:18:25;10.30;;;7.47;;
8466;SDS011;4270;48.148;11.648;2023-05-19T14:20:50;10.03;;;7.63;;
8466;SDS011;4270;48.148;11.648;2023-05-19T14:23:15;9.93;;;7.80;;
8466;SDS011;4270;48.148;11.648;2023-05-19T14:25:41;9.23;;;7.60;;
8466;SDS011;4270;48.148;11.648;2023-05-19T14:28:06;9.23;;;7.97;;
8466;SDS011;4270;48.148;11.648;2023-05-19T14:30:31;9.20;;;8.13;;
8466;SDS011;4270;48.148;11.648;2023-05-19T14:32:56;9.93;;;7.40;;
8466;SDS011;4270;48.148;11.648;2023-05-19T14:35:22;9.13;;;8.07;;
8466;SDS011;4270;48.148;11.648;2023-05-19T14:37:47;9.60;;;8.17;;
8466;SDS011;4270;48.148;11.648;2023-05-19T14:40:12;11.57;;;7.90;;
8466;SDS011;4270;48.148;11.648;2023-05-19T14:42:37;9.23;;;8.30;;
8466;SDS011;4270;48.148;11.648;2023-05-19T14:45:03;8.90;;;8.00;;
8466;SDS011;4270;48.148;11.648;2023-05-19T14:47:28;9.30;;;8.00;;
8466;SDS011;4270;48.148;11.648;2023-05-19T14:49:53;9.30;;;7.97;;
8466;SDS011;4270;48.148;11.648;2023-05-19T14:52:18;8.73;;;7.77;;
8466;SDS011;4270;48.148;11.648;2023-05-19T14:54:43;11.13;;;8.60;;
8466;SDS011;4270;48.148;11.648;2023-05-19T14:57:09;11.30;;;8.73;;
8466;SDS011;4270;48.148;11.648;2023-05-19T14:59:37;12.13;;;8.30;;
8466;SDS011;4270;48.148;11.648;2023-05-19T15:02:02;9.57;;;8.33;;
8466;SDS011;4270;48.148;11.648;2023-05-19T15:04:28;8.10;;;7.30;;
8466;SDS011;4270;48.148;11.648;2023-05-19T15:06:53;9.33;;;7.53;;
8466;SDS011;4270;48.148;11.648;2023-05-19T15:09:18;8.43;;;7.63;;
8466;SDS011;4270;48.148;11.648;2023-05-19T15:11:44;10.40;;;7.30;;